Time;durP1;ratioP1;P1;durP2;ratioP2;P2;SDS_P1;SDS_P2;PMS_P1;PMS_P2;Temp;Humidity;BMP_temperature;BMP_pressure;BME280_temperature;BME280_humidity;BME280_pressure;Samples;Min_cycle;Max_cycle;Signal;HPM_P1;HPM_P2
2022/09/13 00:01:02;;;;;;;6.80;4.80;;;;;;;16.75;78.05;94701.50;5052500;28;20452;-81
2022/09/13 00:03:30;;;;;;;6.90;4.63;;;;;;;16.72;78.25;94690.25;5052271;28;20914;-81
2022/09/13 00:05:58;;;;;;;5.97;5.07;;;;;;;16.68;78.34;94691.59;5033855;28;20457;-82
2022/09/13 00:08:25;;;;;;;5.10;4.63;;;;;;;16.68;78.29;94688.97;5052295;28;20491;-82
2022/09/13 00:10:52;;;;;;;5.87;4.90;;;;;;;16.64;78.30;94679.69;5052185;28;20805;-82
2022/09/13 00:13:18;;;;;;;5.53;5.03;;;;;;;16.75;78.70;94691.75;5052197;28;20479;-82
2022/09/13 00:15:50;;;;;;;6.50;5.90;;;;;;;16.81;78.60;94683.13;5052071;28;20435;-81
2022/09/13 00:18:18;;;;;;;6.73;4.63;;;;;;;16.84;78.57;94674.00;5052447;28;20448;-82
2022/09/13 00:20:46;;;;;;;5.90;5.30;;;;;;;16.91;77.97;94674.94;5052086;28;20444;-81
2022/09/13 00:23:13;;;;;;;11.20;5.80;;;;;;;16.97;78.19;94671.59;5052186;28;20495;-82
2022/09/13 00:25:41;;;;;;;6.13;5.27;;;;;;;16.98;77.57;94667.94;5052169;28;20454;-81
2022/09/13 00:28:08;;;;;;;5.53;5.03;;;;;;;17.03;77.03;94670.88;5052011;28;20450;-81
2022/09/13 00:30:35;;;;;;;6.50;5.63;;;;;;;16.97;75.86;94671.59;5051992;28;20477;-82
2022/09/13 00:33:03;;;;;;;6.50;5.80;;;;;;;16.93;76.04;94663.16;5052377;28;20494;-81
2022/09/13 00:35:30;;;;;;;7.67;6.43;;;;;;;16.89;75.81;94669.00;5051931;28;20459;-81
2022/09/13 00:38:03;;;;;;;6.77;6.17;;;;;;;16.86;75.61;94661.41;5051958;28;20485;-82
2022/09/13 00:40:30;;;;;;;6.67;6.10;;;;;;;16.85;75.91;94654.44;5051705;28;20495;-81
2022/09/13 00:42:57;;;;;;;7.00;6.40;;;;;;;16.72;76.70;94655.00;5052115;28;20488;-82
2022/09/13 00:45:24;;;;;;;6.93;6.33;;;;;;;16.77;75.97;94657.97;5033371;28;20814;-82
2022/09/13 00:47:57;;;;;;;6.53;5.90;;;;;;;16.73;75.87;94660.13;5052294;28;20432;-82
2022/09/13 00:50:30;;;;;;;10.30;5.87;;;;;;;16.73;75.29;94662.78;5051791;28;20954;-81
2022/09/13 00:53:05;;;;;;;6.63;5.90;;;;;;;16.70;74.81;94657.00;5051600;28;20928;-81
2022/09/13 00:55:38;;;;;;;6.60;6.17;;;;;;;16.67;74.78;94655.53;5052270;28;20448;-81
2022/09/13 00:58:10;;;;;;;6.17;5.57;;;;;;;16.68;75.20;94654.53;5051918;28;20959;-82
2022/09/13 01:00:38;;;;;;;7.90;5.77;;;;;;;16.72;75.26;94662.94;5053007;28;20459;-82
2022/09/13 01:03:10;;;;;;;6.33;5.27;;;;;;;16.70;74.93;94655.16;5055489;28;20441;-82
2022/09/13 01:05:42;;;;;;;6.13;5.70;;;;;;;16.72;74.37;94658.47;5055598;28;20490;-82
2022/09/13 01:08:14;;;;;;;6.30;5.70;;;;;;;16.66;74.79;94650.41;5055550;28;20452;-81
2022/09/13 01:10:41;;;;;;;5.83;5.33;;;;;;;16.63;75.40;94645.41;5055774;28;20430;-81
2022/09/13 01:13:14;;;;;;;6.67;6.07;;;;;;;16.56;76.25;94650.59;5055419;28;20931;-82
2022/09/13 01:15:41;;;;;;;6.33;5.70;;;;;;;16.49;76.66;94643.50;5055089;28;20445;-82
2022/09/13 01:18:09;;;;;;;7.10;6.40;;;;;;;16.51;76.78;94649.44;5055062;28;20481;-82
2022/09/13 01:20:54;;;;;;;9.53;6.30;;;;;;;16.47;76.77;94643.66;5036646;28;20458;-81
2022/09/13 01:24:02;;;;;;;6.87;6.20;;;;;;;16.43;77.27;94647.63;5055154;28;20437;-81
2022/09/13 01:27:22;;;;;;;7.20;6.43;;;;;;;16.43;78.10;94642.34;5054995;28;20495;-81
2022/09/13 01:30:12;;;;;;;8.27;6.13;;;;;;;16.45;78.15;94645.63;5032370;28;20478;-81
2022/09/13 01:33:03;;;;;;;6.07;5.57;;;;;;;16.18;79.42;94640.78;5032761;28;20954;-80
2022/09/13 01:35:43;;;;;;;9.33;5.93;;;;;;;16.14;80.70;94639.47;5032693;28;20461;-81
2022/09/13 01:38:25;;;;;;;7.27;6.03;;;;;;;16.05;82.48;94634.19;5032755;28;20485;-82
2022/09/13 01:41:06;;;;;;;6.80;5.60;;;;;;;16.03;82.77;94630.91;5032628;28;20937;-82
2022/09/13 01:43:42;;;;;;;6.03;5.43;;;;;;;16.05;83.77;94631.56;5032518;28;20448;-82
2022/09/13 01:46:18;;;;;;;5.30;4.80;;;;;;;16.11;83.63;94627.41;5032618;28;20453;-82
2022/09/13 01:48:55;;;;;;;6.53;5.03;;;;;;;16.20;83.51;94629.03;5032590;28;20448;-82
2022/09/13 01:51:29;;;;;;;7.73;5.30;;;;;;;16.27;83.07;94623.88;5032466;28;20452;-82
2022/09/13 01:54:09;;;;;;;6.80;5.57;;;;;;;16.26;82.92;94628.34;5032512;28;20475;-82
2022/09/13 01:56:40;;;;;;;5.77;5.23;;;;;;;16.28;82.83;94629.00;5032261;28;20495;-82
2022/09/13 01:59:14;;;;;;;7.67;5.60;;;;;;;16.31;82.88;94627.84;5032252;28;20969;-82
2022/09/13 02:01:49;;;;;;;5.40;4.90;;;;;;;16.37;82.60;94627.16;5054385;28;20457;-82
2022/09/13 02:04:20;;;;;;;6.77;6.00;;;;;;;16.41;82.56;94631.09;5035648;28;20447;-81
2022/09/13 02:06:51;;;;;;;6.43;5.80;;;;;;;16.43;81.63;94629.09;5054246;28;20448;-82
2022/09/13 02:09:23;;;;;;;6.10;5.30;;;;;;;16.44;82.46;94625.44;5054321;28;20452;-82
2022/09/13 02:11:54;;;;;;;9.70;5.67;;;;;;;16.44;81.80;94630.75;5053481;28;20454;-82
2022/09/13 02:14:25;;;;;;;5.57;5.07;;;;;;;16.38;81.88;94628.78;5053952;28;20577;-82
2022/09/13 02:16:57;;;;;;;6.23;5.67;;;;;;;16.34;82.16;94630.13;5054421;28;20999;-82
2022/09/13 02:19:32;;;;;;;7.83;5.30;;;;;;;16.27;82.43;94626.53;5053997;28;20449;-82
2022/09/13 02:22:00;;;;;;;6.07;5.03;;;;;;;16.28;82.32;94620.25;5053877;28;20807;-82
2022/09/13 02:24:30;;;;;;;5.47;4.97;;;;;;;16.28;82.32;94623.72;5053804;28;20451;-82
2022/09/13 02:27:03;;;;;;;5.90;5.33;;;;;;;16.34;82.45;94627.50;5054218;28;20455;-81
2022/09/13 02:29:33;;;;;;;6.37;5.57;;;;;;;16.27;82.53;94621.25;5053631;28;20482;-82
2022/09/13 02:32:09;;;;;;;6.83;6.23;;;;;;;16.21;82.73;94624.56;5054121;28;20446;-82
2022/09/13 02:34:40;;;;;;;6.60;6.00;;;;;;;16.18;82.89;94623.06;5035889;28;20440;-81
2022/09/13 02:37:08;;;;;;;7.27;5.20;;;;;;;16.19;82.77;94622.09;5053511;28;20489;-82
2022/09/13 02:39:39;;;;;;;7.23;5.17;;;;;;;16.09;83.11;94627.56;5053485;28;20456;-82
2022/09/13 02:42:12;;;;;;;6.47;5.50;;;;;;;16.10;83.27;94623.94;5053659;28;20475;-82
2022/09/13 02:44:42;;;;;;;5.40;5.00;;;;;;;16.15;82.68;94630.53;5053779;28;20454;-82
2022/09/13 02:47:21;;;;;;;5.73;5.23;;;;;;;16.16;82.96;94632.19;5053774;28;20432;-82
2022/09/13 02:49:56;;;;;;;10.27;6.23;;;;;;;16.15;83.04;94631.34;5053805;28;20465;-82
2022/09/13 02:52:34;;;;;;;7.33;5.90;;;;;;;16.22;82.33;94627.06;5053292;28;20449;-82
2022/09/13 02:55:16;;;;;;;6.30;5.70;;;;;;;16.22;82.10;94631.53;5034669;28;20435;-82
2022/09/13 02:57:54;;;;;;;6.30;5.67;;;;;;;16.22;81.95;94621.75;5053172;28;20530;-81
2022/09/13 03:00:21;;;;;;;6.00;5.50;;;;;;;16.23;82.10;94626.06;5053558;28;20463;-81
2022/09/13 03:02:51;;;;;;;8.93;5.83;;;;;;;16.24;82.13;94626.88;5051242;28;20506;-82
2022/09/13 03:05:18;;;;;;;5.60;5.10;;;;;;;16.29;82.20;94637.78;5053278;28;20463;-82
2022/09/13 03:07:46;;;;;;;5.90;5.30;;;;;;;16.27;81.77;94637.13;5053515;28;20452;-82
2022/09/13 03:10:15;;;;;;;5.30;4.90;;;;;;;16.24;81.83;94626.88;5034262;28;20448;-82
2022/09/13 03:13:05;;;;;;;7.37;5.40;;;;;;;16.20;82.14;94629.03;5050958;28;20448;-88
2022/09/13 03:15:45;;;;;;;6.27;5.67;;;;;;;16.18;82.04;94635.47;5052948;28;20440;-82
2022/09/13 03:18:25;;;;;;;8.63;5.67;;;;;;;16.08;82.64;94630.38;5034350;28;20570;-82
2022/09/13 03:21:01;;;;;;;5.13;4.73;;;;;;;15.98;82.50;94627.94;5052788;28;20448;-82
2022/09/13 03:23:45;;;;;;;5.97;5.47;;;;;;;15.96;82.97;94634.41;5052513;28;20443;-82
2022/09/13 03:26:24;;;;;;;5.60;5.10;;;;;;;15.92;83.01;94633.09;5010883;28;20459;-81
2022/09/13 03:29:03;;;;;;;6.23;4.80;;;;;;;15.88;83.41;94629.09;5010456;28;20489;-81
2022/09/13 03:31:36;;;;;;;6.30;5.70;;;;;;;15.91;83.11;94636.72;5010814;28;20470;-82
2022/09/13 03:34:11;;;;;;;7.43;5.30;;;;;;;15.86;83.89;94631.91;4978104;28;20891;-82
2022/09/13 03:36:45;;;;;;;6.63;5.80;;;;;;;15.79;83.84;94623.84;5010863;28;20464;-81
2022/09/13 03:39:22;;;;;;;10.07;6.33;;;;;;;15.74;83.79;94635.94;5010677;28;20895;-81
2022/09/13 03:41:54;;;;;;;5.90;5.30;;;;;;;15.78;83.74;94631.94;5010515;28;20447;-81
2022/09/13 03:44:23;;;;;;;10.67;6.03;;;;;;;15.81;83.70;94628.97;5033533;28;20451;-81
2022/09/13 03:46:56;;;;;;;6.07;5.47;;;;;;;15.80;83.77;94624.66;5052524;28;20917;-80
2022/09/13 03:49:27;;;;;;;5.63;5.10;;;;;;;15.89;83.60;94636.06;5052666;28;20473;-82
2022/09/13 03:51:54;;;;;;;7.27;5.40;;;;;;;15.88;82.95;94639.69;5052641;28;20814;-82
2022/09/13 03:54:24;;;;;;;6.50;4.77;;;;;;;15.92;82.64;94641.84;5052271;28;20456;-83
2022/09/13 03:57:08;;;;;;;8.67;5.50;;;;;;;15.98;82.65;94640.34;5052507;28;20450;-83
2022/09/13 03:59:37;;;;;;;7.87;5.37;;;;;;;16.01;82.72;94640.84;5052688;28;20940;-83
2022/09/13 04:02:04;;;;;;;8.67;6.30;;;;;;;16.10;82.28;94647.75;5033970;28;20990;-84
2022/09/13 04:04:33;;;;;;;6.00;5.40;;;;;;;16.14;82.75;94645.59;5052503;28;20430;-83
2022/09/13 04:07:03;;;;;;;5.87;5.37;;;;;;;16.19;85.71;94642.41;5052578;28;20485;-86
2022/09/13 04:09:30;;;;;;;7.63;6.17;;;;;;;16.71;84.69;94648.88;5052779;28;20855;-86
2022/09/13 04:11:57;;;;;;;6.00;5.37;;;;;;;17.26;81.28;94649.69;5052381;28;20442;-86
2022/09/13 04:14:25;;;;;;;9.73;5.67;;;;;;;17.69;78.16;94650.06;5052863;28;20452;-88
2022/09/13 04:16:53;;;;;;;9.40;5.70;;;;;;;18.05;76.52;94645.75;5053125;28;20851;-87
2022/09/13 04:19:20;;;;;;;30.47;7.80;;;;;;;18.34;74.37;94642.28;5034418;28;20547;-87
2022/09/13 04:21:49;;;;;;;10.90;5.53;;;;;;;18.62;72.46;94644.28;5053050;28;20801;-83
2022/09/13 04:24:17;;;;;;;7.43;5.40;;;;;;;18.72;70.33;94639.50;5052204;28;20448;-84
2022/09/13 04:26:44;;;;;;;6.70;5.50;;;;;;;18.59;70.08;94642.81;5052377;28;20448;-81
2022/09/13 04:29:11;;;;;;;6.03;5.57;;;;;;;18.48;70.17;94654.72;5051857;28;20581;-80
2022/09/13 04:31:38;;;;;;;6.43;5.70;;;;;;;18.29;70.72;94649.97;5053054;28;20453;-81
2022/09/13 04:34:05;;;;;;;6.77;5.33;;;;;;;18.05;71.80;94653.72;5033902;28;20441;-82
2022/09/13 04:36:33;;;;;;;7.00;5.80;;;;;;;17.78;72.66;94654.31;5055619;28;20949;-81
2022/09/13 04:39:01;;;;;;;13.37;5.90;;;;;;;17.56;73.70;94656.75;5057302;28;20473;-84
2022/09/13 04:41:28;;;;;;;7.93;6.50;;;;;;;17.28;75.50;94661.78;5057047;28;20430;-81
2022/09/13 04:43:55;;;;;;;17.63;6.73;;;;;;;17.21;75.54;94670.63;5056922;28;20476;-82
2022/09/13 04:46:22;;;;;;;8.43;6.67;;;;;;;17.04;75.98;94669.88;5056742;28;20448;-82
2022/09/13 04:48:50;;;;;;;11.83;6.27;;;;;;;16.84;76.97;94668.69;5021655;28;20457;-80
2022/09/13 04:51:17;;;;;;;11.17;6.07;;;;;;;16.82;78.99;94662.75;5056448;28;20935;-81
2022/09/13 04:53:44;;;;;;;6.77;6.17;;;;;;;16.72;78.60;94670.88;5056408;28;20452;-81
2022/09/13 04:56:14;;;;;;;10.23;6.47;;;;;;;16.52;80.01;94674.94;5056748;28;20461;-82
2022/09/13 04:58:41;;;;;;;12.37;7.13;;;;;;;16.36;81.06;94676.63;5055631;28;20502;-80
2022/09/13 05:01:09;;;;;;;13.63;6.80;;;;;;;16.50;81.58;94677.75;5060687;28;20975;-80
2022/09/13 05:03:37;;;;;;;13.23;6.80;;;;;;;16.71;81.51;94693.09;5064857;28;20452;-81
2022/09/13 05:06:11;;;;;;;7.07;6.30;;;;;;;17.13;79.33;94686.59;5056752;28;20441;-81
2022/09/13 05:08:39;;;;;;;11.40;7.20;;;;;;;17.29;77.48;94687.31;5056428;28;20464;-81
2022/09/13 05:11:07;;;;;;;10.70;8.57;;;;;;;17.49;76.44;94687.66;5056020;28;20987;-80
2022/09/13 05:13:35;;;;;;;8.90;8.00;;;;;;;17.53;75.42;94688.13;5056487;28;20458;-80
2022/09/13 05:16:05;;;;;;;10.50;8.80;;;;;;;17.51;75.67;94685.66;5056277;28;20453;-80
2022/09/13 05:18:33;;;;;;;12.70;9.20;;;;;;;17.61;75.71;94680.09;5050544;28;20481;-81
2022/09/13 05:21:02;;;;;;;9.40;7.97;;;;;;;17.92;74.52;94675.56;5048684;28;20446;-80
2022/09/13 05:23:30;;;;;;;11.77;8.37;;;;;;;18.23;73.55;94682.59;5054518;28;20548;-81
2022/09/13 05:26:01;;;;;;;8.17;7.00;;;;;;;18.50;72.60;94681.09;5054751;28;20492;-81
2022/09/13 05:28:29;;;;;;;11.20;8.47;;;;;;;18.92;71.73;94684.97;5035499;28;20453;-80
2022/09/13 05:30:59;;;;;;;7.90;7.10;;;;;;;19.30;69.71;94685.59;5055168;28;20450;-80
2022/09/13 05:33:26;;;;;;;8.40;7.60;;;;;;;19.73;68.02;94675.84;5054419;28;20812;-80
2022/09/13 05:35:54;;;;;;;10.00;7.77;;;;;;;20.13;66.40;94682.28;5054655;28;20442;-81
2022/09/13 05:38:21;;;;;;;8.60;7.07;;;;;;;20.51;65.21;94689.97;5054245;28;20469;-80
2022/09/13 05:40:48;;;;;;;8.17;7.33;;;;;;;20.82;63.48;94694.88;5054643;28;20532;-81
2022/09/13 05:43:15;;;;;;;19.47;7.20;;;;;;;21.00;62.63;94687.97;5054373;28;20984;-81
2022/09/13 05:45:42;;;;;;;7.43;6.73;;;;;;;21.22;62.14;94685.19;5054443;28;20552;-80
2022/09/13 05:48:10;;;;;;;11.97;6.30;;;;;;;21.26;61.06;94683.78;5054127;28;21031;-77
2022/09/13 05:50:38;;;;;;;11.00;6.87;;;;;;;21.24;60.22;94677.81;5054332;28;20453;-80
2022/09/13 05:53:05;;;;;;;11.37;8.03;;;;;;;21.58;60.21;94688.38;5054053;28;21023;-81
2022/09/13 05:55:32;;;;;;;9.33;6.70;;;;;;;21.81;58.27;94681.84;5054240;28;20542;-81
2022/09/13 05:58:01;;;;;;;7.33;6.60;;;;;;;21.91;57.47;94676.91;5054139;28;20517;-81
2022/09/13 06:00:27;;;;;;;12.60;8.50;;;;;;;21.84;57.61;94676.91;5054207;28;20452;-81
2022/09/13 06:02:56;;;;;;;9.07;7.37;;;;;;;21.56;57.37;94678.94;5054220;28;20457;-80
2022/09/13 06:05:24;;;;;;;5.30;4.80;;;;;;;21.51;56.97;94684.06;5053951;28;20441;-81
2022/09/13 06:07:51;;;;;;;13.23;4.30;;;;;;;21.00;57.48;94695.16;5054310;28;20458;-81
2022/09/13 06:10:19;;;;;;;6.90;6.30;;;;;;;20.93;57.39;94684.44;5054234;28;21055;-80
2022/09/13 06:12:46;;;;;;;10.47;4.13;;;;;;;21.06;57.55;94688.19;5053782;28;20884;-82
2022/09/13 06:15:14;;;;;;;6.43;4.70;;;;;;;20.78;57.88;94691.75;5054348;28;20492;-80
2022/09/13 06:17:41;;;;;;;7.10;4.90;;;;;;;20.95;57.13;94685.06;5053773;28;20532;-81
2022/09/13 06:20:09;;;;;;;5.90;3.80;;;;;;;20.83;57.94;94694.69;5053753;28;20445;-80
2022/09/13 06:22:38;;;;;;;6.40;4.00;;;;;;;20.79;58.55;94688.06;5053761;28;20879;-81
2022/09/13 06:25:05;;;;;;;4.67;4.27;;;;;;;20.91;57.31;94696.34;5054209;28;20441;-80
2022/09/13 06:27:32;;;;;;;7.67;3.73;;;;;;;20.82;57.73;94694.88;5053913;28;20445;-81
2022/09/13 06:29:59;;;;;;;4.70;4.23;;;;;;;20.47;57.88;94694.84;5054288;28;21002;-80
2022/09/13 06:32:26;;;;;;;4.90;3.33;;;;;;;20.23;59.32;94698.75;5053871;28;20437;-80
2022/09/13 06:34:53;;;;;;;5.03;4.30;;;;;;;20.35;59.97;94693.72;5053902;28;20460;-81
2022/09/13 06:37:20;;;;;;;4.47;4.07;;;;;;;20.47;58.80;94697.53;5053581;28;20442;-80
2022/09/13 06:39:49;;;;;;;5.00;4.17;;;;;;;20.20;59.87;94698.31;5053947;28;20481;-80
2022/09/13 06:42:15;;;;;;;8.10;4.53;;;;;;;20.24;60.30;94704.91;5053962;28;20446;-81
2022/09/13 06:44:44;;;;;;;5.80;4.83;;;;;;;20.47;59.29;94704.69;5053787;28;20438;-81
2022/09/13 06:47:11;;;;;;;5.63;4.73;;;;;;;20.33;59.91;94704.59;5053894;28;20507;-81
2022/09/13 06:49:38;;;;;;;5.40;4.50;;;;;;;20.47;59.81;94713.53;5053135;28;20453;-81
2022/09/13 06:52:06;;;;;;;6.17;5.13;;;;;;;20.35;59.47;94710.53;5053526;28;20840;-81
2022/09/13 06:54:33;;;;;;;7.03;4.83;;;;;;;19.76;61.92;94718.06;5053464;28;20901;-81
2022/09/13 06:57:03;;;;;;;6.13;4.37;;;;;;;19.69;62.33;94718.00;5053240;28;20449;-81
2022/09/13 06:59:29;;;;;;;11.10;6.00;;;;;;;19.81;62.56;94720.97;5017498;28;20489;-81
2022/09/13 07:01:56;;;;;;;5.90;4.70;;;;;;;20.01;61.86;94721.16;5053458;28;20480;-80
2022/09/13 07:04:23;;;;;;;5.40;4.50;;;;;;;20.06;61.57;94719.56;5053024;28;20489;-81
2022/09/13 07:06:50;;;;;;;5.70;4.80;;;;;;;20.34;60.29;94721.41;5053227;28;20449;-81
2022/09/13 07:09:20;;;;;;;6.93;4.50;;;;;;;20.51;60.03;94724.63;5053367;28;20453;-81
2022/09/13 07:11:47;;;;;;;9.50;5.00;;;;;;;20.57;58.88;94726.53;5053171;28;21037;-80
2022/09/13 07:14:17;;;;;;;4.60;4.20;;;;;;;20.69;59.09;94720.44;5052926;28;20476;-81
2022/09/13 07:16:45;;;;;;;5.90;4.33;;;;;;;20.87;57.99;94724.44;5052970;28;20796;-81
2022/09/13 07:19:15;;;;;;;4.63;4.23;;;;;;;21.06;57.53;94731.69;5053059;28;20592;-80
2022/09/13 07:21:42;;;;;;;4.10;3.70;;;;;;;21.13;56.54;94729.09;5052757;28;20468;-81
2022/09/13 07:24:10;;;;;;;7.80;5.43;;;;;;;21.03;56.12;94730.25;5052802;28;20450;-80
2022/09/13 07:26:37;;;;;;;5.40;4.83;;;;;;;20.78;56.68;94725.59;5052612;28;20453;-81
2022/09/13 07:29:07;;;;;;;4.90;4.50;;;;;;;20.92;57.41;94735.34;5052481;28;20481;-80
2022/09/13 07:31:37;;;;;;;6.40;4.77;;;;;;;20.81;57.12;94728.69;5053082;28;20945;-81
2022/09/13 07:34:06;;;;;;;8.83;6.00;;;;;;;20.90;56.18;94729.38;5052894;28;20457;-81
2022/09/13 07:36:35;;;;;;;11.20;5.00;;;;;;;20.69;56.58;94736.44;5052821;28;20453;-81
2022/09/13 07:39:03;;;;;;;5.63;5.13;;;;;;;20.89;56.74;94731.22;5052785;28;20481;-82
2022/09/13 07:41:31;;;;;;;5.30;4.90;;;;;;;21.00;55.75;94736.00;5052814;28;20456;-81
2022/09/13 07:43:59;;;;;;;4.90;4.50;;;;;;;20.96;56.31;94729.41;5052387;28;20437;-81
2022/09/13 07:46:28;;;;;;;5.80;4.37;;;;;;;21.26;54.48;94737.16;5052170;28;20541;-81
2022/09/13 07:48:57;;;;;;;5.70;3.60;;;;;;;21.43;52.46;94743.81;5052748;28;20457;-81
2022/09/13 07:51:26;;;;;;;8.53;5.10;;;;;;;21.58;51.91;94739.13;5052785;28;20438;-81
2022/09/13 07:53:56;;;;;;;4.30;3.90;;;;;;;21.80;53.31;94738.97;5052200;28;20617;-81
2022/09/13 07:56:25;;;;;;;4.40;3.53;;;;;;;22.00;53.53;94741.69;5052545;28;20445;-81
2022/09/13 07:58:53;;;;;;;7.33;4.57;;;;;;;22.21;51.71;94739.66;5052537;28;20474;-82
2022/09/13 08:01:22;;;;;;;3.00;2.80;;;;;;;21.92;49.23;94745.34;5052403;28;20507;-81
2022/09/13 08:03:52;;;;;;;4.03;3.73;;;;;;;21.59;51.39;94745.28;5052098;28;20476;-81
2022/09/13 08:06:21;;;;;;;5.57;3.50;;;;;;;21.19;52.45;94742.44;5052109;28;20441;-81
2022/09/13 08:08:48;;;;;;;3.40;3.10;;;;;;;20.86;52.58;94747.63;5052075;28;20447;-81
2022/09/13 08:11:19;;;;;;;3.67;3.37;;;;;;;20.64;52.12;94743.38;5052300;28;20453;-80
2022/09/13 08:13:46;;;;;;;3.50;3.20;;;;;;;20.33;53.19;94741.91;5052085;28;20503;-81
2022/09/13 08:16:13;;;;;;;3.70;3.40;;;;;;;20.62;53.22;94743.56;5052515;28;20878;-81
2022/09/13 08:18:44;;;;;;;3.90;3.60;;;;;;;20.81;52.95;94734.03;5051836;28;20852;-81
2022/09/13 08:21:11;;;;;;;6.00;3.83;;;;;;;21.16;52.31;94740.19;5017212;28;20473;-82
2022/09/13 08:23:40;;;;;;;5.20;3.63;;;;;;;21.20;51.97;94737.94;5052275;28;20453;-81
2022/09/13 08:26:07;;;;;;;2.40;2.20;;;;;;;21.48;51.02;94736.03;5051708;28;20831;-81
2022/09/13 08:28:35;;;;;;;6.90;3.40;;;;;;;21.37;50.72;94736.59;5052189;28;20523;-81
2022/09/13 08:31:06;;;;;;;4.23;3.87;;;;;;;21.28;51.02;94743.13;5017192;28;20454;-81
2022/09/13 08:33:33;;;;;;;4.17;3.80;;;;;;;21.02;52.06;94731.28;5052391;28;20503;-81
2022/09/13 08:36:01;;;;;;;4.20;3.80;;;;;;;20.83;53.30;94721.34;5051722;28;20819;-81
2022/09/13 08:38:28;;;;;;;3.53;3.23;;;;;;;20.91;52.67;94728.34;5051692;28;20971;-81
2022/09/13 08:40:58;;;;;;;3.67;3.37;;;;;;;20.77;52.70;94727.44;5051752;28;20449;-81
2022/09/13 08:43:35;;;;;;;4.27;3.20;;;;;;;20.71;53.27;94725.56;5051650;28;20482;-80
2022/09/13 08:46:09;;;;;;;3.77;3.03;;;;;;;20.73;53.56;94723.53;5052114;28;20491;-81
2022/09/13 08:48:39;;;;;;;4.40;4.00;;;;;;;21.02;51.84;94728.59;5051654;28;20440;-80
2022/09/13 08:51:09;;;;;;;3.80;3.30;;;;;;;21.11;51.13;94728.47;5051688;28;20879;-81
2022/09/13 08:53:44;;;;;;;4.00;3.70;;;;;;;21.00;49.55;94730.66;5049509;28;20469;-81
2022/09/13 08:56:20;;;;;;;5.10;3.20;;;;;;;21.07;49.78;94728.00;5051469;28;20449;-81
2022/09/13 08:59:03;;;;;;;3.47;2.70;;;;;;;21.13;48.11;94731.75;5051856;28;20488;-81
2022/09/13 09:01:49;;;;;;;4.30;3.03;;;;;;;21.19;48.45;94729.09;5051585;28;20442;-81
2022/09/13 09:04:33;;;;;;;8.03;3.80;;;;;;;21.54;47.94;94727.19;5051438;28;20449;-82
2022/09/13 09:07:05;;;;;;;4.00;3.20;;;;;;;21.37;46.90;94722.41;5052095;28;20445;-81
2022/09/13 09:09:37;;;;;;;4.43;4.03;;;;;;;21.38;48.15;94714.19;5051646;28;20487;-81
2022/09/13 09:12:15;;;;;;;3.13;2.90;;;;;;;21.74;46.26;94718.41;5057583;28;20465;-81
2022/09/13 09:14:45;;;;;;;3.37;3.17;;;;;;;21.91;46.07;94720.47;5053405;28;20929;-81
2022/09/13 09:17:17;;;;;;;4.13;3.57;;;;;;;21.90;44.89;94720.69;5052287;28;20453;-81
2022/09/13 09:19:47;;;;;;;2.80;2.60;;;;;;;21.74;44.57;94715.75;5033039;28;20535;-81
2022/09/13 09:22:20;;;;;;;3.40;3.10;;;;;;;21.60;46.16;94720.22;5053867;28;20456;-81
2022/09/13 09:24:51;;;;;;;2.97;2.77;;;;;;;21.83;46.75;94717.19;5055158;28;20481;-81
2022/09/13 09:27:20;;;;;;;4.70;4.30;;;;;;;22.20;45.06;94705.94;5054878;28;20453;-80
2022/09/13 09:29:49;;;;;;;4.13;3.20;;;;;;;22.42;42.67;94716.41;5054706;28;20481;-80
2022/09/13 09:32:34;;;;;;;2.80;2.60;;;;;;;22.21;42.64;94696.88;5055169;28;20467;-82
2022/09/13 09:35:12;;;;;;;3.00;2.77;;;;;;;21.73;44.00;94711.44;5054884;28;20453;-82
2022/09/13 09:37:41;;;;;;;3.40;3.20;;;;;;;21.45;45.28;94714.25;5055185;28;20441;-81
2022/09/13 09:40:13;;;;;;;3.57;2.60;;;;;;;21.01;44.67;94699.47;5054758;28;20538;-81
2022/09/13 09:42:45;;;;;;;3.63;2.70;;;;;;;20.99;44.34;94702.34;5055221;28;20446;-81
2022/09/13 09:45:40;;;;;;;2.63;2.50;;;;;;;21.10;45.07;94700.09;5055079;28;20445;-81
2022/09/13 09:48:16;;;;;;;2.83;2.63;;;;;;;21.36;46.90;94696.75;5054486;28;20525;-82
2022/09/13 09:50:48;;;;;;;3.33;3.03;;;;;;;21.50;45.70;94690.44;5054423;28;20446;-81
2022/09/13 09:53:21;;;;;;;3.27;2.97;;;;;;;21.68;44.77;94687.16;5054915;28;20457;-82
2022/09/13 09:55:52;;;;;;;3.00;2.60;;;;;;;21.81;44.98;94682.66;5054664;28;20523;-80
2022/09/13 09:58:38;;;;;;;4.10;2.90;;;;;;;21.59;43.83;94690.03;5054556;28;20461;-80
2022/09/13 10:01:05;;;;;;;4.33;3.10;;;;;;;21.52;44.31;94683.84;5054788;28;20469;-81
2022/09/13 10:03:34;;;;;;;3.10;2.90;;;;;;;21.47;44.10;94690.84;5052338;28;20449;-81
2022/09/13 10:06:06;;;;;;;3.03;2.40;;;;;;;21.48;44.26;94682.63;5054626;28;20458;-81
2022/09/13 10:08:35;;;;;;;2.67;2.53;;;;;;;21.50;44.24;94683.25;5054362;28;20438;-81
2022/09/13 10:11:03;;;;;;;2.80;2.60;;;;;;;21.63;43.83;94677.91;5054448;28;20507;-80
2022/09/13 10:13:32;;;;;;;2.87;2.47;;;;;;;21.82;43.82;94678.16;5054517;28;20450;-81
2022/09/13 10:16:01;;;;;;;3.17;2.87;;;;;;;22.00;43.68;94670.34;5054254;28;20434;-81
2022/09/13 10:18:29;;;;;;;2.90;2.70;;;;;;;22.14;42.60;94666.69;5054118;28;20453;-82
2022/09/13 10:21:03;;;;;;;2.80;2.60;;;;;;;22.23;41.89;94656.59;5054028;28;20984;-81
2022/09/13 10:23:30;;;;;;;3.40;3.10;;;;;;;22.42;41.76;94647.72;5053799;28;20445;-81
2022/09/13 10:26:16;;;;;;;3.30;3.00;;;;;;;22.51;42.12;94656.34;5052000;28;20441;-82
2022/09/13 10:28:52;;;;;;;3.60;2.97;;;;;;;22.62;42.91;94658.38;5054111;28;20461;-81
2022/09/13 10:31:21;;;;;;;3.37;3.17;;;;;;;22.60;41.63;94649.75;5035249;28;20809;-81
2022/09/13 10:33:57;;;;;;;2.77;2.57;;;;;;;22.60;41.84;94647.06;5033822;28;20437;-81
2022/09/13 10:36:29;;;;;;;3.30;3.10;;;;;;;22.52;43.64;94656.13;5054189;28;20533;-81
2022/09/13 10:38:59;;;;;;;3.93;2.97;;;;;;;22.52;43.49;94653.44;5034711;28;20457;-81
2022/09/13 10:41:28;;;;;;;3.30;3.10;;;;;;;22.42;43.10;94652.25;5053809;28;20944;-81
2022/09/13 10:44:01;;;;;;;4.60;3.60;;;;;;;22.34;42.60;94647.13;5053826;28;20803;-81
2022/09/13 10:46:31;;;;;;;5.50;3.87;;;;;;;22.47;42.67;94647.09;5053520;28;20526;-81
2022/09/13 10:48:59;;;;;;;4.20;3.63;;;;;;;22.58;42.45;94646.47;5053617;28;20933;-82
2022/09/13 10:51:36;;;;;;;3.33;3.03;;;;;;;22.57;40.28;94634.13;5053410;28;20956;-81
2022/09/13 10:54:17;;;;;;;3.13;2.93;;;;;;;22.55;40.90;94638.84;5053256;28;20445;-81
2022/09/13 10:56:45;;;;;;;3.20;2.90;;;;;;;22.51;42.25;94633.09;5053010;28;20932;-81
2022/09/13 10:59:23;;;;;;;3.30;3.00;;;;;;;22.28;41.14;94621.22;5052929;28;20454;-81
2022/09/13 11:02:10;;;;;;;3.50;3.20;;;;;;;22.15;41.70;94622.88;5053368;28;20497;-81
2022/09/13 11:05:11;;;;;;;3.03;2.83;;;;;;;22.18;41.23;94627.81;5053278;28;20552;-81
2022/09/13 11:08:11;;;;;;;3.70;3.40;;;;;;;22.17;41.19;94628.84;4991742;28;20449;-81
2022/09/13 11:10:50;;;;;;;3.00;2.80;;;;;;;22.14;41.85;94620.41;4933655;29;20478;-81
2022/09/13 11:13:25;;;;;;;3.53;3.23;;;;;;;22.24;43.47;94629.66;4886442;29;20447;-81
2022/09/13 11:16:02;;;;;;;3.10;2.90;;;;;;;22.38;43.94;94619.75;4933713;29;20450;-81
2022/09/13 11:18:53;;;;;;;4.03;3.30;;;;;;;22.51;43.38;94625.06;4933833;29;20450;-83
2022/09/13 11:21:35;;;;;;;3.33;3.07;;;;;;;22.47;41.39;94623.03;4932765;29;20487;-81
2022/09/13 11:24:24;;;;;;;2.93;2.73;;;;;;;22.52;40.93;94620.53;4933394;29;20471;-81
2022/09/13 11:27:01;;;;;;;3.10;2.80;;;;;;;22.52;40.24;94609.84;4933750;29;20826;-81
2022/09/13 11:29:53;;;;;;;3.20;3.00;;;;;;;22.58;41.69;94613.53;4933504;29;20534;-81
2022/09/13 11:32:33;;;;;;;3.70;3.40;;;;;;;22.64;41.91;94608.16;4917288;29;20451;-81
2022/09/13 11:35:19;;;;;;;3.60;3.30;;;;;;;22.79;42.95;94605.22;4901342;29;20435;-82
2022/09/13 11:38:11;;;;;;;5.63;3.33;;;;;;;22.76;40.45;94595.75;4890653;29;20446;-82
2022/09/13 11:41:01;;;;;;;3.33;2.57;;;;;;;22.61;40.96;94603.25;4932783;29;20483;-81
2022/09/13 11:43:42;;;;;;;3.50;3.20;;;;;;;22.65;40.94;94607.13;4916591;29;20534;-81
2022/09/13 11:46:27;;;;;;;3.33;3.03;;;;;;;22.41;41.05;94583.75;5014049;28;20449;-80
2022/09/13 11:49:24;;;;;;;2.83;2.63;;;;;;;22.27;40.09;94596.34;5053055;28;20454;-81
2022/09/13 11:52:03;;;;;;;3.00;2.80;;;;;;;22.33;40.42;94589.34;4989854;28;20454;-81
2022/09/13 11:54:46;;;;;;;3.23;3.03;;;;;;;22.26;40.87;94586.66;5030212;28;20450;-80